Mar Maria — 9HA2859 — position and weather

sailwx.info

Track history (hours):
 
Tides and Currents Weather Stations Pressure Air Temp Water Temp Dewpoint Dewpoint Depression Visibility Wind Speed Wind Dir Waves Ship Positions

Mar Maria

Last reported at 2014-Jul-31 02:33 UTC. Time now 2014-Jul-31 03:25 UTC.
Position N 36°40' E 000°03'.

Length 103 m; draft 5.7 m.

Type: Tanker. MMSI: 256435000.

Date/timePositionNaut miles runAvg speedWind from/ knotsBaromVisibWave heightAir tempDewpointWater temp
2014-Jul-31 02:33N 36°40' E 000°03'1313.1
2014-Jul-31 01:32N 36°39' W 000°14'1413.3
2014-Jul-31 00:31N 36°37' W 000°30'1212.7
2014-Jul-30 23:33N 36°34' W 000°45'1312.5
2014-Jul-30 22:33N 36°32' W 001°01'1312.5
2014-Jul-30 21:32N 36°30' W 001°16'19812.9
2014-Jul-30 06:12N 36°00' W 005°19'  
2014-Jul-27 12:33N 35°59' W 005°20'5 5.5
2014-Jul-27 11:33N 35°54' W 005°19'0 0.0
2014-Jul-27 10:33N 35°54' W 005°19'0 0.0
2014-Jul-27 09:33N 35°54' W 005°19'0 0.0
2014-Jul-27 08:33N 35°54' W 005°19'0 0.0
2014-Jul-27 07:33N 35°54' W 005°19'1 1.4
2014-Jul-27 06:33N 35°55' W 005°19'216 9.7
2014-Jul-26 08:22N 37°11' W 001°07'1111.3
2014-Jul-26 07:25N 37°18' W 000°57'1011.6
2014-Jul-26 06:33N 37°25' W 000°47'2311.5
2014-Jul-26 04:33N 37°42' W 000°27'1211.4
2014-Jul-26 03:31N 37°51' W 000°19'1111.4
2014-Jul-26 02:33N 38°01' W 000°11'1211.6
2014-Jul-26 01:32N 38°11' W 000°03'1611.6
2014-Jul-26 00:11N 38°24' E 000°08'711.7
2014-Jul-25 23:33N 38°30' E 000°13'1311.4
2014-Jul-25 22:25N 38°40' E 000°22'1010.8
2014-Jul-25 21:28N 38°48' E 000°31'1110.9
2014-Jul-25 20:30N 38°55' E 000°42'1010.9
2014-Jul-25 19:33N 39°01' E 000°52'1110.8
2014-Jul-25 18:33N 39°08' E 001°02'1110.7
2014-Jul-25 17:33N 39°15' E 001°13'1110.6
2014-Jul-25 16:33N 39°22' E 001°23'1110.7
2014-Jul-25 15:34N 39°29' E 001°33'1110.8
2014-Jul-25 14:33N 39°36' E 001°44'1110.9
2014-Jul-25 13:33N 39°44' E 001°55'1111.0
2014-Jul-25 12:33N 39°51' E 002°06'1110.8
2014-Jul-25 11:33N 39°58' E 002°16'1111.2
2014-Jul-25 10:33N 40°05' E 002°28'1111.4
2014-Jul-25 09:34N 40°12' E 002°39'1111.4
2014-Jul-25 08:33N 40°20' E 002°50'1211.5
2014-Jul-25 07:33N 40°27' E 003°02'1111.5
2014-Jul-25 06:33N 40°35' E 003°13'1111.2
2014-Jul-25 05:33N 40°42' E 003°25'1110.7
2014-Jul-25 04:33N 40°49' E 003°35'1211.9
2014-Jul-25 03:31N 40°57' E 003°47'10 9.6
2014-Jul-25 02:32N 41°03' E 003°57'1110.5
2014-Jul-25 01:32N 41°10' E 004°08'1010.4
2014-Jul-25 00:33N 41°17' E 004°18'1110.4
2014-Jul-24 23:32N 41°24' E 004°29'1010.5
2014-Jul-24 22:33N 41°31' E 004°39'1110.0
2014-Jul-24 21:24N 41°38' E 004°51'1011.2
2014-Jul-24 20:32N 41°44' E 005°01'1510.7
2014-Jul-24 19:06N 41°54' E 005°16'711.8
2014-Jul-24 18:32N 41°59' E 005°23'1010.3
2014-Jul-24 17:33N 42°05' E 005°33'1111.1
2014-Jul-24 16:33N 42°13' E 005°45'1111.4
2014-Jul-24 15:33N 42°20' E 005°56'1111.0
2014-Jul-24 14:33N 42°27' E 006°08'1110.5
2014-Jul-24 13:32N 42°34' E 006°19'1010.5
2014-Jul-24 12:33N 42°41' E 006°29'1110.9
2014-Jul-24 11:33N 42°48' E 006°41'1110.9
2014-Jul-24 10:33N 42°55' E 006°52'1110.9
2014-Jul-24 09:33N 43°02' E 007°03'1110.6
2014-Jul-24 08:33N 43°09' E 007°14'1310.4
2014-Jul-24 07:18N 43°17' E 007°28'910.6
2014-Jul-24 06:25N 43°24' E 007°37'5 1.7
2014-Jul-24 03:33N 43°28' E 007°41'1 0.7
2014-Jul-24 02:27N 43°28' E 007°42'1 0.7
2014-Jul-24 01:30N 43°27' E 007°43'1 0.9
2014-Jul-24 00:33N 43°27' E 007°44'1 0.9
2014-Jul-23 23:27N 43°27' E 007°45'1 0.7
2014-Jul-23 22:33N 43°27' E 007°46'1 0.7
2014-Jul-23 21:27N 43°28' E 007°47'1 0.6
2014-Jul-23 20:33N 43°28' E 007°47'1 0.5
2014-Jul-23 19:33N 43°29' E 007°47'1 0.5
2014-Jul-23 18:33N 43°29' E 007°47'0 0.5
2014-Jul-23 17:33N 43°30' E 007°47'0 0.4
2014-Jul-23 16:33N 43°30' E 007°46'0 0.5
2014-Jul-23 15:33N 43°30' E 007°46'0 0.5
2014-Jul-23 14:33N 43°30' E 007°45'0 0.4
2014-Jul-23 13:33N 43°30' E 007°45'0 0.4
2014-Jul-23 12:33N 43°29' E 007°45'0 0.4
2014-Jul-23 11:33N 43°29' E 007°45'0 0.4
2014-Jul-23 10:33N 43°28' E 007°45'0 0.4
2014-Jul-23 09:30N 43°28' E 007°45'0 0.4
2014-Jul-23 08:33N 43°28' E 007°45'0 0.5
2014-Jul-23 07:33N 43°28' E 007°46'0 0.4
2014-Jul-23 06:24N 43°28' E 007°47'0 0.4
2014-Jul-23 05:30N 43°28' E 007°47'0 0.4
2014-Jul-23 04:33N 43°28' E 007°47'0 0.4
2014-Jul-23 03:33N 43°28' E 007°48'0 0.3
2014-Jul-23 02:33N 43°29' E 007°48'0 0.3
2014-Jul-23 01:33N 43°29' E 007°48'0 0.5
2014-Jul-23 00:33N 43°29' E 007°47'1 0.5
2014-Jul-22 23:33N 43°30' E 007°47'1 0.6
2014-Jul-22 22:33N 43°30' E 007°46'1 0.6
2014-Jul-22 21:34N 43°30' E 007°45'1 0.6
2014-Jul-22 20:33N 43°30' E 007°44'1 0.7
2014-Jul-22 19:31N 43°30' E 007°43'0 0.5
2014-Jul-22 18:33N 43°30' E 007°43'1 0.6
2014-Jul-22 17:32N 43°29' E 007°42'0 0.5
2014-Jul-22 16:33N 43°29' E 007°41'0 0.4
2014-Jul-22 15:33N 43°29' E 007°41'0 0.3
2014-Jul-22 14:32N 43°29' E 007°41'0 0.3
2014-Jul-22 13:33N 43°28' E 007°41'0 0.2
2014-Jul-22 12:32N 43°28' E 007°41'0 0.2
2014-Jul-22 11:30N 43°28' E 007°42'0 0.3
2014-Jul-22 10:19N 43°29' E 007°42'0 0.3
2014-Jul-22 09:05N 43°29' E 007°42'0 0.2
2014-Jul-22 08:33N 43°29' E 007°42'0 0.2
2014-Jul-22 07:33N 43°29' E 007°42'0 0.3
2014-Jul-22 06:27N 43°29' E 007°42'7 7.4
2014-Jul-22 05:32N 43°25' E 007°34'8 8.6
2014-Jul-22 04:34N 43°20' E 007°26'10 8.4
2014-Jul-22 03:20N 43°12' E 007°16'1 1.6
2014-Jul-22 02:32N 43°13' E 007°17'10 8.5
2014-Jul-22 01:19N 43°22' E 007°25'8 8.8
2014-Jul-22 00:23N 43°28' E 007°32'7 8.8
2014-Jul-21 23:34N 43°34' E 007°38'0 0.2
2014-Jul-21 22:34N 43°34' E 007°38'9 8.6
2014-Jul-21 21:33N 43°27' E 007°30'14 8.2
2014-Jul-21 19:49N 43°17' E 007°18'2 8.1
2014-Jul-21 19:34N 43°15' E 007°16'1 1.2
2014-Jul-21 18:33N 43°14' E 007°17'9 8.7
2014-Jul-21 17:30N 43°21' E 007°25'9 9.0
2014-Jul-21 16:30N 43°28' E 007°34'7 7.7
2014-Jul-21 15:33N 43°33' E 007°41'42 7.0
2014-Jul-21 09:29N 42°58' E 007°09'6 6.1
2014-Jul-21 08:26N 43°02' E 007°15'7 6.8
2014-Jul-21 07:25N 43°07' E 007°21'  
Track history (hours):
 
Tides and Currents Weather Stations Pressure Air Temp Water Temp Dewpoint Dewpoint Depression Visibility Wind Speed Wind Dir Waves Ship Positions

Mar Maria

Last reported at 2014-Jul-31 02:33 UTC. Time now 2014-Jul-31 03:25 UTC.
Position N 36°40' E 000°03'.

Length 103 m; draft 5.7 m.

Type: Tanker. MMSI: 256435000.

Date/timePositionNaut miles runAvg speedWind from/ knotsBaromVisibWave heightAir tempDewpointWater temp
2014-Jul-31 02:33N 36°40' E 000°03'1313.1
2014-Jul-31 01:32N 36°39' W 000°14'1413.3
2014-Jul-31 00:31N 36°37' W 000°30'1212.7
2014-Jul-30 23:33N 36°34' W 000°45'1312.5
2014-Jul-30 22:33N 36°32' W 001°01'1312.5
2014-Jul-30 21:32N 36°30' W 001°16'19812.9
2014-Jul-30 06:12N 36°00' W 005°19'  
2014-Jul-27 12:33N 35°59' W 005°20'5 5.5
2014-Jul-27 11:33N 35°54' W 005°19'0 0.0
2014-Jul-27 10:33N 35°54' W 005°19'0 0.0
2014-Jul-27 09:33N 35°54' W 005°19'0 0.0
2014-Jul-27 08:33N 35°54' W 005°19'0 0.0
2014-Jul-27 07:33N 35°54' W 005°19'1 1.4
2014-Jul-27 06:33N 35°55' W 005°19'216 9.7
2014-Jul-26 08:22N 37°11' W 001°07'1111.3
2014-Jul-26 07:25N 37°18' W 000°57'1011.6
2014-Jul-26 06:33N 37°25' W 000°47'2311.5
2014-Jul-26 04:33N 37°42' W 000°27'1211.4
2014-Jul-26 03:31N 37°51' W 000°19'1111.4
2014-Jul-26 02:33N 38°01' W 000°11'1211.6
2014-Jul-26 01:32N 38°11' W 000°03'1611.6
2014-Jul-26 00:11N 38°24' E 000°08'711.7
2014-Jul-25 23:33N 38°30' E 000°13'1311.4
2014-Jul-25 22:25N 38°40' E 000°22'1010.8
2014-Jul-25 21:28N 38°48' E 000°31'1110.9
2014-Jul-25 20:30N 38°55' E 000°42'1010.9
2014-Jul-25 19:33N 39°01' E 000°52'1110.8
2014-Jul-25 18:33N 39°08' E 001°02'1110.7
2014-Jul-25 17:33N 39°15' E 001°13'1110.6
2014-Jul-25 16:33N 39°22' E 001°23'1110.7
2014-Jul-25 15:34N 39°29' E 001°33'1110.8
2014-Jul-25 14:33N 39°36' E 001°44'1110.9
2014-Jul-25 13:33N 39°44' E 001°55'1111.0
2014-Jul-25 12:33N 39°51' E 002°06'1110.8
2014-Jul-25 11:33N 39°58' E 002°16'1111.2
2014-Jul-25 10:33N 40°05' E 002°28'1111.4
2014-Jul-25 09:34N 40°12' E 002°39'1111.4
2014-Jul-25 08:33N 40°20' E 002°50'1211.5
2014-Jul-25 07:33N 40°27' E 003°02'1111.5
2014-Jul-25 06:33N 40°35' E 003°13'1111.2
2014-Jul-25 05:33N 40°42' E 003°25'1110.7
2014-Jul-25 04:33N 40°49' E 003°35'1211.9
2014-Jul-25 03:31N 40°57' E 003°47'10 9.6
2014-Jul-25 02:32N 41°03' E 003°57'1110.5
2014-Jul-25 01:32N 41°10' E 004°08'1010.4
2014-Jul-25 00:33N 41°17' E 004°18'1110.4
2014-Jul-24 23:32N 41°24' E 004°29'1010.5
2014-Jul-24 22:33N 41°31' E 004°39'1110.0
2014-Jul-24 21:24N 41°38' E 004°51'1011.2
2014-Jul-24 20:32N 41°44' E 005°01'1510.7
2014-Jul-24 19:06N 41°54' E 005°16'711.8
2014-Jul-24 18:32N 41°59' E 005°23'1010.3
2014-Jul-24 17:33N 42°05' E 005°33'1111.1
2014-Jul-24 16:33N 42°13' E 005°45'1111.4
2014-Jul-24 15:33N 42°20' E 005°56'1111.0
2014-Jul-24 14:33N 42°27' E 006°08'1110.5
2014-Jul-24 13:32N 42°34' E 006°19'1010.5
2014-Jul-24 12:33N 42°41' E 006°29'1110.9
2014-Jul-24 11:33N 42°48' E 006°41'1110.9
2014-Jul-24 10:33N 42°55' E 006°52'1110.9
2014-Jul-24 09:33N 43°02' E 007°03'1110.6
2014-Jul-24 08:33N 43°09' E 007°14'1310.4
2014-Jul-24 07:18N 43°17' E 007°28'910.6
2014-Jul-24 06:25N 43°24' E 007°37'5 1.7
2014-Jul-24 03:33N 43°28' E 007°41'1 0.7
2014-Jul-24 02:27N 43°28' E 007°42'1 0.7
2014-Jul-24 01:30N 43°27' E 007°43'1 0.9
2014-Jul-24 00:33N 43°27' E 007°44'1 0.9
2014-Jul-23 23:27N 43°27' E 007°45'1 0.7
2014-Jul-23 22:33N 43°27' E 007°46'1 0.7
2014-Jul-23 21:27N 43°28' E 007°47'1 0.6
2014-Jul-23 20:33N 43°28' E 007°47'1 0.5
2014-Jul-23 19:33N 43°29' E 007°47'1 0.5
2014-Jul-23 18:33N 43°29' E 007°47'0 0.5
2014-Jul-23 17:33N 43°30' E 007°47'0 0.4
2014-Jul-23 16:33N 43°30' E 007°46'0 0.5
2014-Jul-23 15:33N 43°30' E 007°46'0 0.5
2014-Jul-23 14:33N 43°30' E 007°45'0 0.4
2014-Jul-23 13:33N 43°30' E 007°45'0 0.4
2014-Jul-23 12:33N 43°29' E 007°45'0 0.4
2014-Jul-23 11:33N 43°29' E 007°45'0 0.4
2014-Jul-23 10:33N 43°28' E 007°45'0 0.4
2014-Jul-23 09:30N 43°28' E 007°45'0 0.4
2014-Jul-23 08:33N 43°28' E 007°45'0 0.5
2014-Jul-23 07:33N 43°28' E 007°46'0 0.4
2014-Jul-23 06:24N 43°28' E 007°47'0 0.4
2014-Jul-23 05:30N 43°28' E 007°47'0 0.4
2014-Jul-23 04:33N 43°28' E 007°47'0 0.4
2014-Jul-23 03:33N 43°28' E 007°48'0 0.3
2014-Jul-23 02:33N 43°29' E 007°48'0 0.3
2014-Jul-23 01:33N 43°29' E 007°48'0 0.5
2014-Jul-23 00:33N 43°29' E 007°47'1 0.5
2014-Jul-22 23:33N 43°30' E 007°47'1 0.6
2014-Jul-22 22:33N 43°30' E 007°46'1 0.6
2014-Jul-22 21:34N 43°30' E 007°45'1 0.6
2014-Jul-22 20:33N 43°30' E 007°44'1 0.7
2014-Jul-22 19:31N 43°30' E 007°43'0 0.5
2014-Jul-22 18:33N 43°30' E 007°43'1 0.6
2014-Jul-22 17:32N 43°29' E 007°42'0 0.5
2014-Jul-22 16:33N 43°29' E 007°41'0 0.4
2014-Jul-22 15:33N 43°29' E 007°41'0 0.3
2014-Jul-22 14:32N 43°29' E 007°41'0 0.3
2014-Jul-22 13:33N 43°28' E 007°41'0 0.2
2014-Jul-22 12:32N 43°28' E 007°41'0 0.2
2014-Jul-22 11:30N 43°28' E 007°42'0 0.3
2014-Jul-22 10:19N 43°29' E 007°42'0 0.3
2014-Jul-22 09:05N 43°29' E 007°42'0 0.2
2014-Jul-22 08:33N 43°29' E 007°42'0 0.2
2014-Jul-22 07:33N 43°29' E 007°42'0 0.3
2014-Jul-22 06:27N 43°29' E 007°42'7 7.4
2014-Jul-22 05:32N 43°25' E 007°34'8 8.6
2014-Jul-22 04:34N 43°20' E 007°26'10 8.4
2014-Jul-22 03:20N 43°12' E 007°16'1 1.6
2014-Jul-22 02:32N 43°13' E 007°17'10 8.5
2014-Jul-22 01:19N 43°22' E 007°25'8 8.8
2014-Jul-22 00:23N 43°28' E 007°32'7 8.8
2014-Jul-21 23:34N 43°34' E 007°38'0 0.2
2014-Jul-21 22:34N 43°34' E 007°38'9 8.6
2014-Jul-21 21:33N 43°27' E 007°30'14 8.2
2014-Jul-21 19:49N 43°17' E 007°18'2 8.1
2014-Jul-21 19:34N 43°15' E 007°16'1 1.2
2014-Jul-21 18:33N 43°14' E 007°17'9 8.7
2014-Jul-21 17:30N 43°21' E 007°25'9 9.0
2014-Jul-21 16:30N 43°28' E 007°34'7 7.7
2014-Jul-21 15:33N 43°33' E 007°41'42 7.0
2014-Jul-21 09:29N 42°58' E 007°09'6 6.1
2014-Jul-21 08:26N 43°02' E 007°15'7 6.8
2014-Jul-21 07:25N 43°07' E 007°21'  

Dump ship's entire track history